Time;durP1;ratioP1;P1;durP2;ratioP2;P2;SDS_P1;SDS_P2;PMS_P1;PMS_P2;Temp;Humidity;BMP_temperature;BMP_pressure;BME280_temperature;BME280_humidity;BME280_pressure;Samples;Min_cycle;Max_cycle;Signal;HPM_P1;HPM_P2
2022/04/13 00:00:22;;;;;;;0.70;0.70;;;9.40;98.80;;;;;;5040691;28;20241;-69
2022/04/13 00:03:06;;;;;;;1.17;1.10;;;9.30;98.60;;;;;;5035812;28;20217;-67
2022/04/13 00:05:51;;;;;;;1.23;1.00;;;9.10;98.70;;;;;;5041702;28;20193;-68
2022/04/13 00:08:35;;;;;;;1.33;1.20;;;9.20;98.80;;;;;;5043022;28;20294;-60
2022/04/13 00:11:19;;;;;;;35.30;12.50;;;9.10;98.80;;;;;;5037436;28;20194;-66
2022/04/13 00:14:04;;;;;;;1.63;1.30;;;9.00;98.80;;;;;;5044720;28;20221;-51
2022/04/13 00:16:51;;;;;;;1.47;0.87;;;9.00;99.10;;;;;;5041924;28;20296;-63
2022/04/13 00:19:35;;;;;;;62.93;20.40;;;8.90;99.10;;;;;;5039389;28;20193;-58
2022/04/13 00:22:19;;;;;;;1.37;1.37;;;8.90;99.20;;;;;;5042423;28;20205;-66
2022/04/13 00:25:04;;;;;;;2.67;1.27;;;8.80;99.30;;;;;;5040732;28;20214;-51
2022/04/13 00:27:48;;;;;;;1.03;0.93;;;8.70;99.80;;;;;;5039706;28;20209;-69
2022/04/13 00:30:33;;;;;;;1.37;1.03;;;8.60;99.70;;;;;;5041020;28;20185;-70
2022/04/13 00:33:17;;;;;;;3.33;1.40;;;8.60;99.90;;;;;;5036566;28;20202;-68
2022/04/13 00:36:01;;;;;;;4.23;1.03;;;8.40;99.90;;;;;;5042057;28;20217;-60
2022/04/13 00:38:46;;;;;;;2.33;1.23;;;8.40;99.90;;;;;;5039504;28;20205;-63
2022/04/13 00:41:30;;;;;;;0.77;0.77;;;8.30;99.90;;;;;;5041206;28;20233;-54
2022/04/13 00:44:14;;;;;;;2.33;1.00;;;8.20;99.90;;;;;;5038651;28;20241;-51
2022/04/13 00:47:01;;;;;;;1.80;1.00;;;8.00;99.90;;;;;;5041179;28;20222;-60
2022/04/13 00:49:45;;;;;;;0.73;0.73;;;8.00;99.90;;;;;;5038289;28;20236;-56
2022/04/13 00:52:33;;;;;;;0.90;0.60;;;8.00;99.90;;;;;;5042917;28;20190;-60
2022/04/13 00:55:20;;;;;;;1.83;1.07;;;7.90;99.90;;;;;;5040559;28;20226;-69
2022/04/13 00:58:07;;;;;;;0.40;0.40;;;7.90;99.90;;;;;;5036304;28;20194;-68
2022/04/13 01:00:53;;;;;;;0.67;0.50;;;8.00;99.90;;;;;;5037377;28;20194;-60
2022/04/13 01:03:37;;;;;;;1.53;0.93;;;8.00;99.90;;;;;;5038361;28;20293;-67
2022/04/13 01:06:23;;;;;;;0.83;0.83;;;8.00;99.90;;;;;;5041531;28;20214;-69
2022/04/13 01:09:08;;;;;;;2.33;0.80;;;8.00;99.90;;;;;;5026240;28;20194;-65
2022/04/13 01:11:52;;;;;;;0.80;0.80;;;7.90;99.90;;;;;;5038768;28;20248;-58
2022/04/13 01:14:36;;;;;;;0.83;0.83;;;7.80;99.90;;;;;;5043001;28;20213;-54
2022/04/13 01:17:22;;;;;;;0.90;0.90;;;7.70;99.90;;;;;;5038713;28;20278;-67
2022/04/13 01:20:07;;;;;;;1.03;0.97;;;7.70;99.90;;;;;;5041439;28;20190;-65
2022/04/13 01:22:52;;;;;;;1.53;0.87;;;7.70;99.90;;;;;;5041479;28;20628;-66
2022/04/13 01:25:37;;;;;;;1.40;0.97;;;7.70;99.90;;;;;;5039119;28;20287;-63
2022/04/13 01:28:22;;;;;;;2.30;1.00;;;7.70;99.90;;;;;;5041777;28;20197;-51
2022/04/13 01:31:06;;;;;;;1.17;1.07;;;7.60;99.90;;;;;;5043623;28;20283;-56
2022/04/13 01:33:51;;;;;;;0.87;0.87;;;7.50;99.90;;;;;;5041903;28;20222;-55
2022/04/13 01:36:37;;;;;;;0.80;0.80;;;7.50;99.90;;;;;;5045670;28;20253;-69
2022/04/13 01:39:21;;;;;;;0.90;0.90;;;7.40;99.90;;;;;;5046257;28;20189;-62
2022/04/13 01:42:06;;;;;;;1.33;0.63;;;7.40;99.90;;;;;;5041606;28;20202;-63
2022/04/13 01:44:51;;;;;;;0.93;0.90;;;7.40;99.90;;;;;;5046940;28;20239;-60
2022/04/13 01:47:36;;;;;;;0.57;0.50;;;7.30;99.90;;;;;;5044397;28;20271;-68
2022/04/13 01:50:21;;;;;;;0.60;0.60;;;7.30;99.90;;;;;;5043031;28;20770;-64
2022/04/13 01:53:05;;;;;;;0.80;0.73;;;7.30;99.90;;;;;;5046051;28;20218;-61
2022/04/13 01:55:50;;;;;;;1.20;1.00;;;7.30;99.90;;;;;;5041330;28;20224;-48
2022/04/13 01:58:35;;;;;;;3.07;0.70;;;7.30;99.90;;;;;;5043249;28;20190;-57
2022/04/13 02:01:20;;;;;;;0.90;0.80;;;7.30;99.90;;;;;;5044855;28;20198;-50
2022/04/13 02:04:27;;;;;;;1.23;1.10;;;7.30;99.90;;;;;;5043067;28;20229;-58
2022/04/13 02:07:12;;;;;;;1.10;1.10;;;7.30;99.90;;;;;;5040179;28;20242;-63
2022/04/13 02:09:56;;;;;;;4.37;1.00;;;7.20;99.90;;;;;;5043989;28;20187;-53
2022/04/13 02:12:42;;;;;;;1.40;0.93;;;7.20;99.90;;;;;;5043129;28;20198;-54
2022/04/13 02:15:26;;;;;;;0.73;0.73;;;7.10;99.90;;;;;;5056960;28;20313;-66
2022/04/13 02:18:11;;;;;;;1.07;0.80;;;7.10;99.90;;;;;;5040578;28;20198;-66
2022/04/13 02:20:55;;;;;;;1.13;0.80;;;7.10;99.90;;;;;;5041460;28;20202;-61
2022/04/13 02:23:39;;;;;;;2.03;1.10;;;6.90;99.90;;;;;;5044861;28;20277;-52
2022/04/13 02:26:24;;;;;;;0.77;0.77;;;6.90;99.90;;;;;;5040592;28;20198;-63
2022/04/13 02:29:10;;;;;;;1.50;0.87;;;6.90;99.90;;;;;;5038532;28;20198;-64
2022/04/13 02:31:54;;;;;;;0.77;0.77;;;7.00;99.90;;;;;;5043716;28;20201;-67
2022/04/13 02:34:39;;;;;;;1.43;1.33;;;6.80;99.90;;;;;;5042234;28;20295;-59
2022/04/13 02:37:24;;;;;;;1.10;1.10;;;6.90;99.90;;;;;;5043470;28;20194;-66
2022/04/13 02:40:10;;;;;;;1.03;0.67;;;6.80;99.90;;;;;;5044859;28;20186;-60
2022/04/13 02:42:54;;;;;;;6.80;0.80;;;6.80;99.90;;;;;;5041435;28;20210;-58
2022/04/13 02:45:40;;;;;;;0.73;0.73;;;6.70;99.90;;;;;;5043544;28;20290;-60
2022/04/13 02:48:24;;;;;;;0.80;0.80;;;6.70;99.90;;;;;;5044414;28;20248;-53
2022/04/13 02:51:08;;;;;;;5.70;1.50;;;6.70;99.90;;;;;;5040300;28;20222;-52
2022/04/13 02:53:52;;;;;;;0.83;0.83;;;6.80;99.90;;;;;;5043235;28;20198;-71
2022/04/13 02:56:36;;;;;;;1.03;0.90;;;6.80;99.90;;;;;;5041438;28;20319;-65
2022/04/13 02:59:20;;;;;;;1.40;0.90;;;6.70;99.90;;;;;;5043482;28;20194;-63
2022/04/13 03:02:05;;;;;;;0.90;0.80;;;6.70;99.90;;;;;;5044525;28;20278;-52
2022/04/13 03:04:51;;;;;;;4.77;1.17;;;6.80;99.90;;;;;;5040207;28;20217;-58
2022/04/13 03:07:36;;;;;;;0.93;0.70;;;6.80;99.90;;;;;;5041689;28;20226;-61
2022/04/13 03:10:21;;;;;;;1.00;0.90;;;6.70;99.90;;;;;;5043188;28;20264;-68
2022/04/13 03:13:06;;;;;;;1.37;1.00;;;6.70;99.90;;;;;;5041733;28;20209;-66
2022/04/13 03:15:52;;;;;;;0.87;0.80;;;6.70;99.90;;;;;;5042514;28;20282;-57
2022/04/13 03:18:36;;;;;;;0.70;0.70;;;6.70;99.90;;;;;;5042925;28;20222;-54
2022/04/13 03:21:20;;;;;;;2.73;0.80;;;6.70;99.90;;;;;;5041746;28;20198;-60
2022/04/13 03:24:05;;;;;;;0.80;0.80;;;6.70;99.90;;;;;;5041762;28;20209;-53
2022/04/13 03:26:50;;;;;;;0.97;0.90;;;6.60;99.90;;;;;;5038027;28;20277;-68
2022/04/13 03:29:34;;;;;;;0.70;0.70;;;6.60;99.90;;;;;;5041302;28;20198;-57
2022/04/13 03:32:19;;;;;;;2.03;1.03;;;6.60;99.90;;;;;;5043435;28;20248;-66
2022/04/13 03:35:08;;;;;;;1.10;1.00;;;6.60;99.90;;;;;;5040930;28;20189;-51
2022/04/13 03:37:52;;;;;;;5.03;1.00;;;6.60;99.90;;;;;;5040805;28;20253;-66
2022/04/13 03:40:37;;;;;;;2.07;0.70;;;6.60;99.90;;;;;;5042474;28;20190;-66
2022/04/13 03:43:21;;;;;;;1.20;1.20;;;6.60;99.90;;;;;;5038789;28;20202;-60
2022/04/13 03:46:06;;;;;;;0.63;0.63;;;6.50;99.90;;;;;;5044385;28;20190;-67
2022/04/13 03:48:51;;;;;;;0.87;0.87;;;6.50;99.90;;;;;;5041978;28;20222;-63
2022/04/13 03:51:35;;;;;;;1.77;0.93;;;6.50;99.90;;;;;;5039479;28;20217;-63
2022/04/13 03:54:20;;;;;;;5.10;0.90;;;6.40;99.90;;;;;;5040673;28;20202;-65
2022/04/13 03:57:06;;;;;;;2.47;0.70;;;6.50;99.90;;;;;;5041570;28;20300;-62
2022/04/13 03:59:50;;;;;;;0.83;0.83;;;6.60;99.90;;;;;;5039140;28;20197;-52
2022/04/13 04:02:39;;;;;;;2.73;2.00;;;6.60;99.90;;;;;;5041502;28;20197;-56
2022/04/13 04:05:23;;;;;;;5.40;4.13;;;6.60;99.90;;;;;;5040945;28;20270;-66
2022/04/13 04:08:07;;;;;;;0.80;0.80;;;6.60;99.90;;;;;;5042128;28;20198;-61
2022/04/13 04:10:53;;;;;;;1.90;0.67;;;6.70;99.90;;;;;;5037961;28;20253;-55
2022/04/13 04:13:39;;;;;;;1.00;1.00;;;6.80;99.90;;;;;;5036965;28;20220;-56
2022/04/13 04:16:23;;;;;;;0.87;0.87;;;6.70;99.90;;;;;;5039968;28;20242;-64
2022/04/13 04:19:08;;;;;;;1.57;0.93;;;6.70;99.90;;;;;;5041864;28;20218;-59
2022/04/13 04:21:54;;;;;;;1.00;0.90;;;6.60;99.90;;;;;;5039394;28;20349;-59
2022/04/13 04:24:38;;;;;;;2.23;1.03;;;6.60;99.90;;;;;;5042408;28;20201;-61
2022/04/13 04:27:22;;;;;;;0.90;0.90;;;6.70;99.90;;;;;;5041566;28;20210;-65
2022/04/13 04:30:07;;;;;;;3.90;1.10;;;6.80;99.90;;;;;;5041212;28;20299;-57
2022/04/13 04:32:51;;;;;;;0.80;0.80;;;6.80;99.90;;;;;;5041296;28;20198;-59
2022/04/13 04:35:36;;;;;;;1.47;1.10;;;6.70;99.90;;;;;;5039344;28;20313;-55
2022/04/13 04:38:23;;;;;;;1.63;1.10;;;6.80;99.90;;;;;;5041687;28;20245;-53
2022/04/13 04:41:09;;;;;;;4.13;1.13;;;6.80;99.90;;;;;;5041371;28;20194;-65
2022/04/13 04:43:54;;;;;;;0.97;0.93;;;6.70;99.90;;;;;;5039733;28;20275;-61
2022/04/13 04:46:39;;;;;;;1.07;1.07;;;6.70;99.90;;;;;;5039264;28;20190;-57
2022/04/13 04:49:24;;;;;;;0.77;0.77;;;6.70;99.90;;;;;;5040623;28;20259;-53
2022/04/13 04:52:09;;;;;;;1.00;0.77;;;6.70;99.90;;;;;;5038600;28;20202;-65
2022/04/13 04:54:54;;;;;;;1.13;1.13;;;6.70;99.90;;;;;;5042414;28;20353;-62
2022/04/13 04:57:39;;;;;;;1.30;0.93;;;6.80;99.90;;;;;;5038466;28;20244;-63
2022/04/13 05:00:23;;;;;;;0.90;0.90;;;6.80;99.90;;;;;;5038409;28;20206;-54
2022/04/13 05:03:08;;;;;;;1.90;0.93;;;6.90;99.90;;;;;;5040284;28;20199;-54
2022/04/13 05:05:52;;;;;;;1.23;1.13;;;6.80;99.90;;;;;;5039709;28;20257;-55
2022/04/13 05:08:37;;;;;;;1.30;1.20;;;6.80;99.90;;;;;;5040810;28;20197;-46
2022/04/13 05:11:22;;;;;;;1.63;0.90;;;6.80;99.90;;;;;;5042087;28;20292;-62
2022/04/13 05:14:07;;;;;;;1.93;1.07;;;6.90;99.90;;;;;;5039921;28;20698;-65
2022/04/13 05:16:51;;;;;;;1.63;1.30;;;6.80;99.90;;;;;;5041865;28;20222;-50
2022/04/13 05:19:37;;;;;;;1.33;1.00;;;6.90;99.90;;;;;;5027815;28;20198;-59
2022/04/13 05:22:21;;;;;;;1.40;1.30;;;6.90;99.90;;;;;;5023248;28;20207;-54
2022/04/13 05:25:09;;;;;;;1.40;1.30;;;6.90;99.90;;;;;;5024200;28;20286;-60
2022/04/13 05:27:53;;;;;;;1.17;1.10;;;7.00;99.90;;;;;;5021769;28;20207;-53
2022/04/13 05:30:38;;;;;;;1.70;1.27;;;7.20;99.90;;;;;;5041549;28;20321;-54
2022/04/13 05:33:23;;;;;;;1.40;1.13;;;7.10;99.90;;;;;;5043314;28;20286;-65
2022/04/13 05:36:07;;;;;;;3.50;1.30;;;7.10;99.90;;;;;;5041263;28;20225;-50
2022/04/13 05:38:52;;;;;;;0.67;0.67;;;7.30;99.90;;;;;;5041966;28;20193;-52
2022/04/13 05:41:37;;;;;;;2.23;1.23;;;7.40;99.90;;;;;;5043664;28;20194;-49
2022/04/13 05:44:21;;;;;;;1.23;1.13;;;7.50;99.90;;;;;;5040273;28;20194;-49
2022/04/13 05:47:06;;;;;;;1.50;1.20;;;7.30;99.90;;;;;;5023683;28;20203;-51
2022/04/13 05:49:50;;;;;;;4.73;1.10;;;7.30;99.90;;;;;;5037995;28;20205;-56
2022/04/13 05:52:35;;;;;;;1.27;1.13;;;7.30;99.90;;;;;;5040457;28;20217;-50
2022/04/13 05:55:21;;;;;;;1.73;1.63;;;7.50;99.90;;;;;;5043408;28;20280;-54
2022/04/13 05:58:05;;;;;;;2.07;1.40;;;7.70;99.90;;;;;;5039975;28;20197;-59
2022/04/13 06:00:52;;;;;;;1.10;1.10;;;7.80;99.90;;;;;;5021283;28;20219;-45
2022/04/13 06:03:37;;;;;;;1.40;1.30;;;7.80;99.90;;;;;;5022926;28;20191;-48
2022/04/13 06:06:25;;;;;;;6.50;1.50;;;7.80;99.90;;;;;;5021595;28;20207;-48
2022/04/13 06:09:09;;;;;;;0.97;0.97;;;7.70;99.90;;;;;;5021481;28;20279;-49
2022/04/13 06:11:55;;;;;;;1.00;0.93;;;7.80;99.90;;;;;;5023223;28;20226;-46
2022/04/13 06:14:39;;;;;;;2.17;1.37;;;8.00;99.90;;;;;;5022747;28;20198;-53
2022/04/13 06:17:24;;;;;;;1.20;1.10;;;8.00;99.90;;;;;;5030323;28;20210;-51
2022/04/13 06:20:09;;;;;;;1.53;1.30;;;8.00;99.90;;;;;;5026644;28;20190;-51
2022/04/13 06:22:53;;;;;;;4.07;1.97;;;8.10;99.90;;;;;;5025918;28;20210;-54
2022/04/13 06:25:38;;;;;;;2.20;1.40;;;8.10;99.90;;;;;;5046458;28;20217;-48
2022/04/13 06:28:22;;;;;;;3.83;1.97;;;8.30;99.90;;;;;;5058526;28;20206;-56
2022/04/13 06:31:07;;;;;;;1.60;1.50;;;8.40;99.90;;;;;;5043545;28;20209;-47
2022/04/13 06:33:52;;;;;;;3.73;1.73;;;8.50;99.90;;;;;;5045989;28;20202;-47
2022/04/13 06:36:36;;;;;;;2.50;1.47;;;8.70;99.90;;;;;;5044953;28;20229;-60
2022/04/13 06:39:20;;;;;;;1.57;1.37;;;8.80;99.90;;;;;;5044408;28;20202;-49
2022/04/13 06:42:05;;;;;;;2.30;1.80;;;8.90;99.90;;;;;;5045779;28;20214;-50
2022/04/13 06:44:52;;;;;;;1.63;1.20;;;9.00;99.90;;;;;;5043934;28;20218;-54
2022/04/13 06:47:38;;;;;;;1.50;1.40;;;9.10;99.90;;;;;;5045557;28;20244;-54
2022/04/13 06:50:22;;;;;;;1.67;1.57;;;9.40;99.90;;;;;;5045236;28;20221;-56
2022/04/13 06:53:07;;;;;;;2.53;1.50;;;9.50;99.90;;;;;;5043578;28;20256;-57
2022/04/13 06:55:52;;;;;;;3.33;1.67;;;9.60;99.90;;;;;;5045859;28;20257;-53
2022/04/13 06:58:36;;;;;;;2.47;1.20;;;9.50;99.90;;;;;;5038863;28;20249;-65
2022/04/13 07:01:20;;;;;;;1.87;1.50;;;9.50;99.90;;;;;;5023789;28;20246;-53
2022/04/13 07:04:05;;;;;;;3.30;1.50;;;9.70;99.90;;;;;;5026163;28;20266;-53
2022/04/13 07:06:50;;;;;;;3.70;1.93;;;9.80;99.90;;;;;;5024315;28;20195;-48
2022/04/13 07:09:34;;;;;;;2.47;1.80;;;9.70;99.90;;;;;;5024126;28;20199;-49
2022/04/13 07:12:19;;;;;;;3.87;2.13;;;9.90;99.90;;;;;;5025727;28;20199;-45
2022/04/13 07:15:04;;;;;;;4.40;2.30;;;10.00;99.90;;;;;;5041507;28;20195;-47
2022/04/13 07:17:48;;;;;;;1.77;1.53;;;10.20;99.90;;;;;;5045651;28;20189;-51
2022/04/13 07:20:33;;;;;;;2.20;1.60;;;10.50;99.90;;;;;;5044807;28;20214;-52
2022/04/13 07:23:17;;;;;;;5.10;2.63;;;10.70;99.90;;;;;;5042940;28;20197;-45
2022/04/13 07:26:02;;;;;;;1.70;1.60;;;10.80;99.60;;;;;;5044745;28;20247;-51
2022/04/13 07:28:46;;;;;;;2.43;1.70;;;10.90;99.30;;;;;;5043686;28;20207;-52
2022/04/13 07:31:31;;;;;;;2.43;1.93;;;11.10;99.00;;;;;;5043792;28;20336;-48
2022/04/13 07:34:16;;;;;;;1.60;1.50;;;11.00;98.90;;;;;;5045323;28;20255;-45
2022/04/13 07:37:00;;;;;;;3.13;1.80;;;11.10;99.00;;;;;;5042867;28;20226;-55
2022/04/13 07:40:33;;;;;;;3.67;2.10;;;11.50;98.70;;;;;;5030526;28;20249;-55
2022/04/13 07:43:18;;;;;;;2.50;1.73;;;11.70;98.20;;;;;;5033521;28;20247;-51
2022/04/13 07:46:02;;;;;;;10.80;5.27;;;12.00;97.70;;;;;;5034177;28;20222;-53
2022/04/13 07:48:47;;;;;;;4.93;2.70;;;12.10;96.80;;;;;;5030321;28;20217;-50
2022/04/13 07:51:32;;;;;;;2.27;2.07;;;12.10;96.90;;;;;;5045523;28;20218;-50
2022/04/13 07:54:17;;;;;;;2.63;1.37;;;12.50;96.40;;;;;;5042976;28;20194;-46
2022/04/13 07:57:02;;;;;;;3.77;1.77;;;12.80;95.80;;;;;;5043531;28;20230;-49
2022/04/13 07:59:46;;;;;;;1.30;1.20;;;13.00;95.10;;;;;;5040642;28;20240;-43
2022/04/13 08:02:34;;;;;;;5.23;1.73;;;13.10;95.10;;;;;;5042749;28;20271;-50
2022/04/13 08:05:18;;;;;;;3.47;1.77;;;13.40;94.40;;;;;;5043588;28;20206;-51
2022/04/13 08:08:02;;;;;;;1.97;1.77;;;13.70;94.00;;;;;;5042731;28;20255;-47
2022/04/13 08:10:47;;;;;;;6.33;3.80;;;13.70;93.50;;;;;;5040379;28;20198;-53
2022/04/13 08:13:32;;;;;;;4.27;2.13;;;13.90;93.70;;;;;;5044531;28;20187;-51
2022/04/13 08:16:16;;;;;;;1.97;1.27;;;14.20;92.90;;;;;;5042006;28;20277;-46
2022/04/13 08:19:00;;;;;;;1.60;1.50;;;14.70;92.60;;;;;;5031710;28;20721;-49
2022/04/13 08:21:45;;;;;;;2.67;1.60;;;14.70;91.70;;;;;;5023871;28;20248;-65
2022/04/13 08:24:29;;;;;;;3.53;1.90;;;14.80;91.20;;;;;;5041557;28;20252;-49
2022/04/13 08:27:14;;;;;;;1.37;1.30;;;14.80;91.20;;;;;;5043387;28;20201;-67
2022/04/13 08:29:58;;;;;;;2.20;1.90;;;14.80;90.90;;;;;;5043197;28;20270;-56
2022/04/13 08:32:43;;;;;;;2.83;2.20;;;15.20;90.50;;;;;;5042535;28;20244;-54
2022/04/13 08:35:27;;;;;;;3.57;2.10;;;15.50;89.60;;;;;;5044353;28;20222;-48
2022/04/13 08:38:12;;;;;;;2.63;1.70;;;15.50;89.30;;;;;;5043662;28;20250;-44
2022/04/13 08:41:01;;;;;;;2.40;1.70;;;15.80;89.70;;;;;;5042191;28;20281;-46
2022/04/13 08:43:51;;;;;;;3.43;2.00;;;16.10;89.30;;;;;;5044632;28;20206;-57
2022/04/13 08:46:38;;;;;;;2.50;1.90;;;16.50;88.50;;;;;;5043709;28;20194;-62
2022/04/13 08:49:23;;;;;;;3.60;1.90;;;16.20;87.40;;;;;;5042543;28;20191;-54
2022/04/13 08:52:09;;;;;;;2.23;1.93;;;16.60;87.50;;;;;;5044770;28;20205;-48
2022/04/13 08:55:26;;;;;;;3.30;1.70;;;16.10;88.50;;;;;;5042454;28;20291;-53
2022/04/13 08:58:55;;;;;;;1.83;1.70;;;16.40;88.70;;;;;;5042405;28;20202;-51
2022/04/13 09:01:57;;;;;;;2.00;1.63;;;16.80;87.40;;;;;;4988852;28;20195;-61
2022/04/13 09:04:44;;;;;;;2.93;1.90;;;16.70;86.70;;;;;;4988812;28;20192;-63
2022/04/13 09:07:32;;;;;;;7.70;4.13;;;17.10;86.50;;;;;;4986981;28;20308;-51
2022/04/13 09:10:22;;;;;;;3.13;2.30;;;17.40;85.10;;;;;;4988593;28;20199;-47
2022/04/13 09:13:10;;;;;;;2.90;1.93;;;17.60;84.80;;;;;;4988928;28;20205;-57
2022/04/13 09:15:56;;;;;;;2.20;1.70;;;17.70;83.10;;;;;;4986378;28;20294;-60
2022/04/13 09:18:45;;;;;;;2.33;1.87;;;17.80;81.30;;;;;;4989982;28;20231;-57
2022/04/13 09:21:32;;;;;;;1.93;1.83;;;17.70;79.90;;;;;;4989722;28;20352;-57
2022/04/13 09:24:18;;;;;;;9.17;3.37;;;18.20;80.80;;;;;;4986881;28;20207;-50
2022/04/13 09:27:04;;;;;;;3.13;1.85;;;18.70;79.60;;;;;;4988867;28;20310;-53
2022/04/13 09:29:48;;;;;;;1.90;1.70;;;19.40;77.50;;;;;;4987393;28;20195;-55
2022/04/13 09:32:34;;;;;;;2.63;2.03;;;19.60;76.10;;;;;;5021142;28;20233;-58
2022/04/13 09:35:19;;;;;;;2.67;1.98;;;19.80;74.70;;;;;;5044436;28;20303;-52
2022/04/13 09:38:05;;;;;;;2.50;2.03;;;20.50;73.60;;;;;;5041581;28;20236;-48
2022/04/13 09:40:53;;;;;;;2.20;1.70;;;21.10;71.10;;;;;;5042301;28;20217;-44
2022/04/13 09:43:38;;;;;;;2.13;2.03;;;21.40;67.70;;;;;;5043750;28;20249;-55
2022/04/13 09:46:30;;;;;;;2.25;1.40;;;21.30;65.80;;;;;;5042256;28;20233;-63
2022/04/13 09:49:19;;;;;;;1.23;1.20;;;20.30;66.80;;;;;;5043916;28;20193;-56
2022/04/13 09:52:03;;;;;;;2.08;1.88;;;20.40;65.60;;;;;;5047081;28;20238;-57
2022/04/13 09:54:48;;;;;;;1.85;1.50;;;20.70;64.90;;;;;;5045410;28;20191;-55
2022/04/13 09:57:32;;;;;;;1.02;1.02;;;21.00;63.70;;;;;;5047343;28;20276;-59
2022/04/13 10:00:17;;;;;;;18.40;7.95;;;20.10;65.50;;;;;;5046597;28;20198;-47
2022/04/13 10:03:19;;;;;;;5.60;3.50;;;20.90;63.60;;;;;;5045175;28;20195;-51
2022/04/13 10:06:05;;;;;;;5.10;2.38;;;20.80;64.40;;;;;;5046943;28;20197;-48
2022/04/13 10:08:59;;;;;;;2.33;2.13;;;21.40;65.10;;;;;;5046437;28;20198;-60
2022/04/13 10:12:03;;;;;;;3.35;1.85;;;22.20;63.70;;;;;;5044820;28;20203;-58
2022/04/13 10:14:47;;;;;;;2.35;1.80;;;22.20;62.60;;;;;;5047055;28;20278;-52
2022/04/13 10:17:34;;;;;;;3.00;1.67;;;21.00;64.50;;;;;;5046556;28;20273;-54
2022/04/13 10:20:19;;;;;;;3.92;1.65;;;22.00;63.10;;;;;;5045254;28;20194;-51
2022/04/13 10:23:03;;;;;;;1.85;1.75;;;21.50;64.20;;;;;;5047620;28;20189;-60
2022/04/13 10:25:48;;;;;;;3.25;2.30;;;21.70;63.40;;;;;;5045666;28;20272;-64
2022/04/13 10:28:32;;;;;;;2.22;1.88;;;21.20;64.60;;;;;;5046011;28;20202;-48
2022/04/13 10:31:17;;;;;;;2.88;1.70;;;21.10;65.40;;;;;;5046949;28;20198;-52
2022/04/13 10:34:01;;;;;;;1.73;1.63;;;21.60;64.40;;;;;;5045185;28;20237;-54
2022/04/13 10:36:45;;;;;;;3.08;1.80;;;22.00;63.10;;;;;;5044732;28;20317;-48
2022/04/13 10:39:30;;;;;;;2.75;1.67;;;23.00;61.40;;;;;;5029500;28;20183;-51
2022/04/13 10:42:16;;;;;;;2.05;1.60;;;23.90;59.60;;;;;;5040775;28;20190;-56
2022/04/13 10:45:05;;;;;;;1.92;1.83;;;24.40;58.70;;;;;;5046411;28;20182;-52
2022/04/13 10:47:59;;;;;;;4.55;2.03;;;24.60;57.10;;;;;;5038567;28;20253;-53
2022/04/13 10:50:55;;;;;;;2.80;2.50;;;24.90;57.30;;;;;;5042344;28;20258;-49
2022/04/13 10:53:55;;;;;;;5.93;3.60;;;25.50;56.00;;;;;;5044989;28;20210;-56
2022/04/13 10:56:43;;;;;;;1.50;1.45;;;25.90;54.70;;;;;;5044321;28;20229;-56
2022/04/13 10:59:44;;;;;;;1.55;1.40;;;26.10;53.60;;;;;;5040428;28;20274;-62
2022/04/13 11:02:33;;;;;;;2.08;1.65;;;25.30;55.00;;;;;;5044963;28;20253;-64
2022/04/13 11:05:17;;;;;;;1.55;1.45;;;25.80;54.80;;;;;;5046081;28;20186;-51
2022/04/13 11:08:12;;;;;;;1.52;1.42;;;25.10;55.20;;;;;;5038219;28;20273;-59
2022/04/13 11:10:57;;;;;;;3.05;1.42;;;25.30;55.40;;;;;;5044192;28;20198;-51
2022/04/13 11:13:42;;;;;;;2.22;2.03;;;25.60;54.70;;;;;;5044998;28;20232;-60
2022/04/13 11:16:29;;;;;;;1.88;1.77;;;25.90;54.60;;;;;;5039363;28;20230;-46
2022/04/13 11:19:13;;;;;;;1.83;1.73;;;26.60;53.50;;;;;;5043939;28;20280;-58
2022/04/13 11:21:57;;;;;;;2.28;1.65;;;26.70;53.20;;;;;;5043532;28;20201;-63
2022/04/13 11:25:02;;;;;;;3.70;1.40;;;26.80;53.30;;;;;;5042926;28;20218;-53
2022/04/13 11:27:53;;;;;;;3.15;1.40;;;27.20;52.40;;;;;;5042394;28;20206;-51
2022/04/13 11:31:00;;;;;;;1.40;1.30;;;26.80;52.90;;;;;;5043105;28;20194;-52
2022/04/13 11:33:55;;;;;;;1.15;1.15;;;27.60;51.90;;;;;;5042505;28;20249;-52
2022/04/13 11:36:51;;;;;;;2.35;1.73;;;27.70;51.00;;;;;;5042871;28;20227;-50
2022/04/13 11:39:56;;;;;;;1.70;1.60;;;27.00;51.20;;;;;;5056930;28;20217;-52
2022/04/13 11:42:42;;;;;;;1.92;1.70;;;27.30;51.90;;;;;;5042177;28;20233;-48
2022/04/13 11:45:27;;;;;;;10.25;5.95;;;27.00;52.00;;;;;;5045270;28;20296;-62
2022/04/13 11:48:34;;;;;;;3.90;2.67;;;27.40;51.20;;;;;;5040734;28;20183;-56
2022/04/13 11:51:27;;;;;;;2.92;2.28;;;27.10;51.90;;;;;;5056402;28;20313;-48
2022/04/13 11:54:13;;;;;;;2.72;2.42;;;26.80;52.40;;;;;;5042968;28;20248;-52
2022/04/13 11:56:57;;;;;;;2.83;1.60;;;27.20;52.50;;;;;;5041432;28;20304;-65
2022/04/13 11:59:47;;;;;;;1.35;1.10;;;28.20;51.80;;;;;;5042304;28;20189;-56
2022/04/13 12:02:32;;;;;;;1.05;1.00;;;28.70;50.80;;;;;;5042297;28;20189;-49
2022/04/13 12:05:18;;;;;;;1.48;1.40;;;28.60;50.40;;;;;;5039528;28;20281;-53
2022/04/13 12:08:13;;;;;;;1.25;1.25;;;28.60;50.70;;;;;;5038985;28;20194;-47
2022/04/13 12:11:24;;;;;;;1.55;1.48;;;28.70;50.40;;;;;;5043383;28;20222;-47
2022/04/13 12:14:10;;;;;;;2.05;1.52;;;29.80;49.30;;;;;;5040714;28;20195;-53
2022/04/13 12:16:59;;;;;;;1.27;1.17;;;29.40;49.20;;;;;;5036346;28;20284;-45
2022/04/13 12:19:44;;;;;;;1.25;1.23;;;28.00;51.90;;;;;;5041985;28;20233;-49
2022/04/13 12:22:34;;;;;;;1.20;1.20;;;27.80;51.00;;;;;;5043720;28;20195;-54
2022/04/13 12:25:19;;;;;;;3.28;1.30;;;28.30;51.60;;;;;;5043241;28;20229;-51
2022/04/13 12:28:05;;;;;;;1.88;1.08;;;28.60;50.30;;;;;;5029400;28;20250;-51
2022/04/13 12:31:08;;;;;;;1.40;1.30;;;28.70;50.70;;;;;;5023879;28;20276;-48
2022/04/13 12:33:52;;;;;;;2.55;1.30;;;28.80;50.70;;;;;;5037722;28;20241;-56
2022/04/13 12:36:38;;;;;;;1.95;1.35;;;28.80;49.70;;;;;;5057684;28;20214;-51
2022/04/13 12:39:31;;;;;;;2.47;2.25;;;29.30;50.20;;;;;;5042559;28;20245;-54
2022/04/13 12:42:22;;;;;;;1.50;1.40;;;28.90;50.60;;;;;;5042804;28;20198;-44
2022/04/13 12:45:13;;;;;;;1.55;1.45;;;28.20;51.40;;;;;;5044252;28;20202;-57
2022/04/13 12:47:58;;;;;;;1.42;1.30;;;27.40;53.40;;;;;;5041926;28;20226;-48
2022/04/13 12:51:00;;;;;;;1.20;1.20;;;27.40;52.40;;;;;;5042736;28;21004;-49
2022/04/13 12:53:48;;;;;;;1.20;1.17;;;27.50;52.30;;;;;;5042040;28;20193;-49
2022/04/13 12:56:36;;;;;;;3.40;1.10;;;27.50;52.20;;;;;;5039352;28;20268;-55
2022/04/13 12:59:22;;;;;;;1.10;1.00;;;27.50;52.10;;;;;;5022702;28;20257;-53
2022/04/13 13:02:06;;;;;;;1.50;1.40;;;27.20;52.60;;;;;;5024225;28;20278;-60
2022/04/13 13:04:54;;;;;;;1.65;1.48;;;27.80;52.10;;;;;;5022409;28;20206;-58
2022/04/13 13:07:39;;;;;;;1.40;1.30;;;28.20;51.60;;;;;;5039477;28;20233;-61
2022/04/13 13:10:32;;;;;;;1.15;1.05;;;28.80;50.60;;;;;;5041825;28;20205;-56
2022/04/13 13:13:19;;;;;;;3.65;1.10;;;28.00;50.50;;;;;;5038876;28;20207;-65
2022/04/13 13:16:04;;;;;;;2.50;1.38;;;27.80;51.20;;;;;;5042221;28;20255;-65
2022/04/13 13:19:07;;;;;;;1.13;1.13;;;28.00;50.20;;;;;;5041465;28;20241;-59
2022/04/13 13:22:16;;;;;;;1.00;1.00;;;28.60;49.90;;;;;;5042192;28;20186;-58
2022/04/13 13:25:03;;;;;;;1.52;1.42;;;29.10;49.70;;;;;;5039988;28;20190;-62
2022/04/13 13:27:51;;;;;;;1.65;1.55;;;29.80;49.00;;;;;;5036543;28;20189;-64
2022/04/13 13:30:40;;;;;;;1.90;1.77;;;30.10;48.40;;;;;;5036436;28;20185;-66
2022/04/13 13:33:26;;;;;;;2.05;1.25;;;30.20;48.50;;;;;;5041779;28;20233;-57
2022/04/13 13:36:17;;;;;;;1.60;1.17;;;30.70;48.70;;;;;;5031718;28;20230;-58
2022/04/13 13:39:01;;;;;;;1.48;1.27;;;30.70;48.40;;;;;;5020797;28;20229;-61
2022/04/13 13:42:07;;;;;;;1.92;1.17;;;30.10;48.60;;;;;;5030577;28;20326;-61
2022/04/13 13:44:52;;;;;;;1.30;1.30;;;30.40;48.20;;;;;;5023001;28;20202;-59
2022/04/13 13:47:37;;;;;;;2.47;1.00;;;30.10;48.50;;;;;;5033933;28;20197;-51
2022/04/13 13:50:21;;;;;;;1.40;1.27;;;31.40;47.70;;;;;;5029304;28;20274;-63
2022/04/13 13:53:07;;;;;;;1.40;1.40;;;30.30;48.20;;;;;;5022732;28;20199;-67
2022/04/13 13:55:51;;;;;;;1.10;1.10;;;30.20;48.70;;;;;;5022252;28;20234;-57
2022/04/13 13:58:36;;;;;;;1.50;1.40;;;31.30;47.20;;;;;;5024099;28;20238;-60
2022/04/13 14:01:20;;;;;;;2.35;1.50;;;32.10;46.60;;;;;;5022482;28;20203;-67
2022/04/13 14:04:04;;;;;;;1.13;1.10;;;32.60;46.00;;;;;;5022923;28;20242;-65
2022/04/13 14:06:48;;;;;;;1.05;1.05;;;32.90;45.90;;;;;;5023638;28;20254;-52
2022/04/13 14:09:33;;;;;;;1.02;1.02;;;32.50;45.60;;;;;;5022028;28;20194;-64
2022/04/13 14:12:18;;;;;;;0.98;0.98;;;31.60;46.70;;;;;;5025775;28;20199;-62
2022/04/13 14:15:02;;;;;;;0.80;0.80;;;30.50;46.60;;;;;;5022950;28;20191;-63
2022/04/13 14:17:48;;;;;;;0.70;0.70;;;31.30;44.90;;;;;;5020406;28;20261;-52
2022/04/13 14:20:32;;;;;;;1.70;1.60;;;31.40;45.00;;;;;;5024005;28;20242;-52
2022/04/13 14:23:17;;;;;;;1.17;0.65;;;31.40;44.90;;;;;;5022639;28;20203;-58
2022/04/13 14:26:02;;;;;;;0.77;0.70;;;30.50;45.50;;;;;;5022013;28;20198;-64
2022/04/13 14:28:46;;;;;;;0.60;0.60;;;30.90;45.80;;;;;;5023264;28;20287;-47
2022/04/13 14:31:31;;;;;;;1.05;0.60;;;30.50;46.00;;;;;;5021663;28;20214;-53
2022/04/13 14:34:16;;;;;;;0.68;0.68;;;30.20;45.20;;;;;;5022586;28;20186;-66